• Join FlightAware (Why Join?)
  • Login
  • US Flag 
09:30PM EDT


 

Airport Tracker/Info


-or-


 

Live Flight TrackerFlight Track Log ✈ N9305N ✈ 26-Jan-2014 ✈ KORL - KORL

Flight Track Log - Related Links

Times and Time Zones

All times are in EST time to prevent confusion due to time zone crossing. See the N9305N flight status page for this flight to view local times or setup timezone preferences in your user account.

Time Position Orientation Groundspeed Altitude Reporting Facility
EST Latitude Longitude Course Direction KTS MPH feet Rate Location/Type
09:50AM 28.5500 -81.3333 240° Southwest 90 104 600  Level Orlando TRACON
09:51AM 28.5333 -81.3667 240° Southwest 79 91 1,400 660 Climbing Orlando TRACON
09:52AM 28.5167 -81.3833 221° Southwest 82 94 2,000 300 Climbing Orlando TRACON
09:53AM 28.5333 -81.4167 300° West 104 120 2,100  Climbing Orlando TRACON
09:54AM 28.5500 -81.4500 300° West 98 113 2,100  Level Orlando TRACON
09:55AM 28.5500 -81.4667 270° West 99 114 2,100  Level Orlando TRACON
09:56AM 28.5667 -81.5000 300° West 105 121 2,100 240 Level Orlando TRACON
09:57AM 28.6000 -81.5000 360° North 83 96 2,600 480 Climbing Orlando TRACON
09:58AM 28.6167 -81.5167 319° Northwest 92 106 3,100 240 Climbing Orlando TRACON
09:59AM 28.6500 -81.5500 319° Northwest 112 129 3,100  Level Orlando TRACON
10:00AM 28.6667 -81.5667 319° Northwest 105 121 3,100  Level Orlando TRACON
10:01AM 28.6833 -81.5833 319° Northwest 98 113 3,100  Level Orlando TRACON
10:02AM 28.7167 -81.6000 336° Northwest 97 112 3,100  Level Orlando TRACON
10:03AM 28.7333 -81.6167 319° Northwest 98 113 3,100  Level Orlando TRACON
10:04AM 28.7500 -81.6333 319° Northwest 96 110 3,100  Level Orlando TRACON
10:05AM 28.7833 -81.6333 360° North 101 116 3,100  Level Orlando TRACON
10:06AM 28.7667 -81.6333 180° South 99 114 3,100  Level Orlando TRACON
10:07AM 28.7500 -81.6167 139° Southeast 98 113 3,100  Level Orlando TRACON
10:08AM 28.7500 -81.6000 90° East 123 142 3,100  Level Orlando TRACON
10:09AM 28.7667 -81.6000 360° North 78 90 3,100  Level Orlando TRACON
10:10AM 28.7833 -81.6167 319° Northwest 85 98 3,100  Level Orlando TRACON
10:11AM 28.7667 -81.6333 221° Southwest 79 91 3,100  Level Orlando TRACON
10:12AM 28.7500 -81.6167 139° Southeast 92 106 3,100  Level Orlando TRACON
10:13AM 28.7500 -81.6000 90° East 119 137 3,100  Level Orlando TRACON
10:14AM 28.7667 -81.6167 319° Northwest 71 82 3,100  Level Orlando TRACON
10:15AM 28.7667 -81.6333 270° West 79 91 3,100  Level Orlando TRACON
10:16AM 28.7500 -81.6333 180° South 109 125 3,100  Level Orlando TRACON
10:17AM 28.7500 -81.6000 90° East 114 131 3,100  Level Orlando TRACON
10:18AM 28.7667 -81.6333 300° West 76 87 3,100  Level Orlando TRACON
10:19AM 28.7667 -81.6500 270° West 82 94 3,100  Level Orlando TRACON
10:20AM 28.7667 -81.6667 270° West 94 108 3,100  Level Orlando TRACON
10:21AM 28.7500 -81.6333 120° Southeast 111 128 3,100  Level Orlando TRACON
10:22AM 28.7333 -81.6000 120° Southeast 109 125 3,100  Level Orlando TRACON
10:23AM 28.7333 -81.5667 90° East 117 135 3,100  Level Orlando TRACON
10:24AM 28.7333 -81.5333 90° East 119 137 3,100  Level Orlando TRACON
10:25AM 28.7333 -81.4833 90° East 114 131 3,100  Level Orlando TRACON
10:26AM 28.7333 -81.4667 90° East 112 129 3,100  Level Orlando TRACON
10:27AM 28.7167 -81.4333 120° Southeast 108 124 3,100  Level Orlando TRACON
10:28AM 28.7167 -81.4000 90° East 113 130 3,100 -60 Level Orlando TRACON
10:29AM 28.7167 -81.3500 90° East 114 131 3,000  Descending Orlando TRACON
10:30AM 28.7000 -81.3167 120° Southeast 113 130 3,100  Climbing Orlando TRACON
10:31AM 28.7000 -81.2833 90° East 117 135 3,100  Level Orlando TRACON
10:32AM 28.7000 -81.2500 90° East 120 138 3,100  Level Orlando TRACON
10:33AM 28.6833 -81.2000 111° Southeast 120 138 3,100  Level Orlando TRACON
10:34AM 28.6833 -81.1667 90° East 122 140 3,100 -180 Level Orlando TRACON
10:35AM 28.6667 -81.1333 120° Southeast 116 133 2,800 -120 Descending Orlando TRACON
10:36AM 28.6500 -81.1333 180° South 83 96 2,900 -180 Climbing Orlando TRACON
10:37AM 28.6167 -81.1500 204° Southwest 89 102 2,500 -480 Descending Orlando TRACON
10:39AM 28.6000 -81.1833 240° Southwest 94 108 2,000 -540 Descending Orlando TRACON
10:39AM 28.6000 -81.2000 270° West 103 119 1,500 -600 Descending Orlando TRACON